createdAt,value
2019-03-06T00:00:39.140Z,81.43
2019-03-06T00:03:10.900Z,81.34
2019-03-06T00:05:43.075Z,81.10
2019-03-06T00:08:15.135Z,81.08
2019-03-06T00:10:47.013Z,80.93
2019-03-06T00:13:18.544Z,80.86
2019-03-06T00:15:50.425Z,80.76
2019-03-06T00:18:22.333Z,80.92
2019-03-06T00:20:54.253Z,80.79
2019-03-06T00:23:26.193Z,80.63
2019-03-06T00:25:57.982Z,80.71
2019-03-06T00:28:29.779Z,80.56
2019-03-06T00:31:01.380Z,80.49
2019-03-06T00:33:33.006Z,80.38
2019-03-06T00:36:06.419Z,80.16
2019-03-06T00:38:38.188Z,79.92
2019-03-06T00:41:11.314Z,80.17
2019-03-06T00:43:42.798Z,79.93
2019-03-06T00:46:14.442Z,79.85
2019-03-06T00:48:46.097Z,79.83
2019-03-06T00:51:17.963Z,79.53
2019-03-06T00:53:49.887Z,79.72
2019-03-06T00:56:21.449Z,79.29
2019-03-06T00:58:53.365Z,79.28
2019-03-06T01:01:25.018Z,79.17
2019-03-06T01:03:56.827Z,78.78
2019-03-06T01:06:28.780Z,78.58
2019-03-06T01:09:00.237Z,78.74
2019-03-06T01:11:32.367Z,78.52
2019-03-06T01:14:03.908Z,78.43
2019-03-06T01:16:35.615Z,77.78
2019-03-06T01:19:07.699Z,77.74
2019-03-06T01:21:39.462Z,77.82
2019-03-06T01:24:11.353Z,77.75
2019-03-06T01:26:43.122Z,77.89
2019-03-06T01:29:14.890Z,77.51
2019-03-06T01:31:46.866Z,77.50
2019-03-06T01:34:20.243Z,77.09
2019-03-06T01:36:53.853Z,77.75
2019-03-06T01:39:40.340Z,76.87
2019-03-06T01:42:17.015Z,77.03
2019-03-06T01:44:49.580Z,76.79
2019-03-06T01:47:21.178Z,76.39
2019-03-06T01:49:52.615Z,76.54
2019-03-06T01:52:24.320Z,76.61
2019-03-06T01:54:56.213Z,76.50
2019-03-06T01:57:27.707Z,76.18
2019-03-06T01:59:59.506Z,75.88
2019-03-06T02:02:31.127Z,76.30
2019-03-06T02:05:03.046Z,76.18
2019-03-06T02:07:35.173Z,76.02
2019-03-06T02:10:07.545Z,75.80
2019-03-06T02:12:39.405Z,75.88
2019-03-06T02:15:12.668Z,76.15
2019-03-06T02:17:44.358Z,75.72
2019-03-06T02:20:17.079Z,75.61
2019-03-06T02:22:50.420Z,75.59
2019-03-06T02:25:22.155Z,75.68
2019-03-06T02:27:53.843Z,76.06
2019-03-06T02:30:25.918Z,76.00
2019-03-06T02:32:57.878Z,75.86
2019-03-06T02:35:30.613Z,75.85
2019-03-06T02:38:02.399Z,75.96
2019-03-06T02:40:33.895Z,75.97
2019-03-06T02:43:05.452Z,75.92
2019-03-06T02:45:37.027Z,76.01
2019-03-06T02:48:08.968Z,76.20
2019-03-06T02:50:40.677Z,76.16
2019-03-06T02:53:12.324Z,76.79
2019-03-06T02:55:43.921Z,76.87
2019-03-06T02:58:17.464Z,77.20
2019-03-06T03:00:50.953Z,77.09
2019-03-06T03:03:40.953Z,76.79
2019-03-06T03:06:16.946Z,76.77
2019-03-06T03:08:48.892Z,76.58
2019-03-06T03:11:20.655Z,76.66
2019-03-06T03:13:52.525Z,77.10
2019-03-06T03:16:24.607Z,76.75
2019-03-06T03:18:56.203Z,76.86
2019-03-06T03:21:27.859Z,76.59
2019-03-06T03:23:59.487Z,76.60
2019-03-06T03:26:31.170Z,76.31
2019-03-06T03:29:02.895Z,76.52
2019-03-06T03:31:34.664Z,76.28
2019-03-06T03:34:06.256Z,76.35
2019-03-06T03:36:38.084Z,76.32
2019-03-06T03:39:12.285Z,76.53
2019-03-06T03:41:43.942Z,76.45
2019-03-06T03:44:16.604Z,76.36
2019-03-06T03:46:48.508Z,76.47
2019-03-06T03:49:20.172Z,76.77
2019-03-06T03:51:52.268Z,76.73
2019-03-06T03:54:25.291Z,76.81
2019-03-06T03:56:57.081Z,76.77
2019-03-06T03:59:29.110Z,76.54
2019-03-06T04:02:00.892Z,76.85
2019-03-06T04:04:32.463Z,76.61
2019-03-06T04:07:04.164Z,77.11
2019-03-06T04:09:37.481Z,76.73
2019-03-06T04:12:09.086Z,76.71
2019-03-06T04:14:40.820Z,76.74
2019-03-06T04:17:12.468Z,76.86
2019-03-06T04:19:44.214Z,76.79
2019-03-06T04:22:16.247Z,76.77
2019-03-06T04:24:47.747Z,76.62
2019-03-06T04:27:19.598Z,76.73
2019-03-06T04:29:51.330Z,76.84
2019-03-06T04:32:23.141Z,76.89
2019-03-06T04:34:54.700Z,76.86
2019-03-06T04:37:26.488Z,76.97
2019-03-06T04:39:58.452Z,76.95
2019-03-06T04:42:30.141Z,76.99
2019-03-06T04:45:01.622Z,77.06
2019-03-06T04:47:33.533Z,76.90
2019-03-06T04:50:05.978Z,76.86
2019-03-06T04:52:37.532Z,76.80
2019-03-06T04:55:10.316Z,76.96
2019-03-06T04:57:42.144Z,77.03
2019-03-06T05:00:14.125Z,76.80
2019-03-06T05:02:45.701Z,77.15
2019-03-06T05:05:17.383Z,77.13
2019-03-06T05:07:48.938Z,76.95
2019-03-06T05:10:20.445Z,77.02
2019-03-06T05:12:51.999Z,76.71
2019-03-06T05:15:23.770Z,76.97
2019-03-06T05:18:06.022Z,76.80
2019-03-06T05:20:37.542Z,77.00
2019-03-06T05:23:09.410Z,76.92
2019-03-06T05:25:40.921Z,77.19
2019-03-06T05:28:12.676Z,77.16
2019-03-06T05:30:44.343Z,77.25
2019-03-06T05:33:16.233Z,77.23
2019-03-06T05:36:31.448Z,77.32
2019-03-06T05:39:10.434Z,77.21
2019-03-06T05:41:42.096Z,77.51
2019-03-06T05:44:14.055Z,77.21
2019-03-06T05:46:45.673Z,77.29
2019-03-06T05:49:17.188Z,77.19
2019-03-06T05:51:48.571Z,77.23
2019-03-06T05:54:19.970Z,77.41
2019-03-06T05:56:51.783Z,77.55
2019-03-06T05:59:23.951Z,77.62
2019-03-06T06:01:56.094Z,77.44
2019-03-06T06:04:27.800Z,77.40
2019-03-06T06:06:59.557Z,77.35
2019-03-06T06:09:31.409Z,77.27
2019-03-06T06:12:03.128Z,77.32
2019-03-06T06:14:34.652Z,77.32
2019-03-06T06:17:05.943Z,77.18
2019-03-06T06:19:38.123Z,77.61
2019-03-06T06:22:17.483Z,77.56
2019-03-06T06:24:49.331Z,77.23
2019-03-06T06:27:20.798Z,77.29
2019-03-06T06:29:52.719Z,77.25
2019-03-06T06:32:25.058Z,77.22
2019-03-06T06:34:56.505Z,77.16
2019-03-06T06:37:28.065Z,77.01
2019-03-06T06:39:59.938Z,77.34
2019-03-06T06:42:31.627Z,77.21
2019-03-06T06:45:03.322Z,77.35
2019-03-06T06:47:34.850Z,77.50
2019-03-06T06:50:07.303Z,77.48
2019-03-06T06:53:29.081Z,77.50
2019-03-06T06:56:41.477Z,77.46
2019-03-06T06:59:29.300Z,76.90
2019-03-06T07:02:34.951Z,77.22
2019-03-06T07:05:17.641Z,77.02
2019-03-06T07:07:53.892Z,77.38
2019-03-06T07:10:43.455Z,77.08
2019-03-06T07:13:16.792Z,77.08
2019-03-06T07:15:53.009Z,77.14
2019-03-06T07:18:32.524Z,77.34
2019-03-06T07:21:05.756Z,77.03
2019-03-06T07:23:38.722Z,76.95
2019-03-06T07:26:12.269Z,76.94
2019-03-06T07:28:51.725Z,76.80
2019-03-06T07:31:25.004Z,76.67
2019-03-06T07:33:58.416Z,76.22
2019-03-06T07:36:46.594Z,76.62
2019-03-06T07:39:25.627Z,76.04
2019-03-06T07:42:04.863Z,75.89
2019-03-06T07:44:41.113Z,75.77
2019-03-06T07:47:17.281Z,74.58
2019-03-06T07:49:51.406Z,75.12
2019-03-06T07:52:30.461Z,74.46
2019-03-06T07:55:06.276Z,75.14
2019-03-06T07:58:14.253Z,74.65
2019-03-06T08:00:45.822Z,74.91
2019-03-06T08:03:50.719Z,74.25
2019-03-06T08:06:22.375Z,74.30
2019-03-06T08:08:54.413Z,74.25
2019-03-06T08:11:27.692Z,74.32
2019-03-06T08:14:00.813Z,74.43
2019-03-06T08:16:34.395Z,74.48
2019-03-06T08:19:08.513Z,74.29
2019-03-06T08:21:44.593Z,74.59
2019-03-06T08:24:30.749Z,74.33
2019-03-06T08:27:02.263Z,74.75
2019-03-06T08:29:34.100Z,74.34
2019-03-06T08:32:07.321Z,74.55
2019-03-06T08:34:39.036Z,74.58
2019-03-06T08:37:10.992Z,74.75
2019-03-06T08:39:42.653Z,74.10
2019-03-06T08:42:14.322Z,74.01
2019-03-06T08:44:46.443Z,72.79
2019-03-06T08:47:31.651Z,73.00
2019-03-06T08:50:04.788Z,72.50
2019-03-06T08:52:42.229Z,73.07
2019-03-06T08:55:31.828Z,71.96
2019-03-06T08:58:08.595Z,70.81
2019-03-06T09:00:51.270Z,70.85
2019-03-06T09:03:26.724Z,70.90
2019-03-06T09:06:11.674Z,70.30
2019-03-06T09:08:50.610Z,69.80
2019-03-06T09:11:23.863Z,70.26
2019-03-06T09:13:56.866Z,69.53
2019-03-06T09:16:39.344Z,69.09
2019-03-06T09:19:21.972Z,68.23
2019-03-06T09:22:02.269Z,68.92
2019-03-06T09:24:51.910Z,68.25
2019-03-06T09:27:41.324Z,66.63
2019-03-06T09:30:19.747Z,64.21
2019-03-06T09:33:00.340Z,62.60
2019-03-06T09:35:43.236Z,60.41
2019-03-06T09:38:16.386Z,59.56
2019-03-06T09:40:49.902Z,59.99
2019-03-06T09:43:26.097Z,57.84
2019-03-06T09:45:59.762Z,57.85
2019-03-06T09:48:35.755Z,58.19
2019-03-06T09:51:09.072Z,58.89
2019-03-06T09:53:51.897Z,57.40
2019-03-06T09:56:25.181Z,56.95
2019-03-06T09:58:58.414Z,56.88
2019-03-06T10:01:31.954Z,57.92
2019-03-06T10:04:05.007Z,56.24
2019-03-06T10:06:44.350Z,55.48
2019-03-06T10:09:21.302Z,53.47
2019-03-06T10:12:09.955Z,54.66
2019-03-06T10:14:49.144Z,52.76
2019-03-06T10:17:22.905Z,54.71
2019-03-06T10:20:02.061Z,52.04
2019-03-06T10:22:33.795Z,53.65
2019-03-06T10:25:06.135Z,52.13
2019-03-06T10:27:38.243Z,50.48
2019-03-06T10:30:12.714Z,50.84
2019-03-06T10:32:44.744Z,51.28
2019-03-06T10:35:17.216Z,51.51
2019-03-06T10:37:49.816Z,53.07
2019-03-06T10:40:21.521Z,50.67
2019-03-06T10:42:53.525Z,50.00
2019-03-06T10:45:25.199Z,50.80
2019-03-06T10:47:56.999Z,51.59
2019-03-06T10:50:31.292Z,50.85
2019-03-06T10:53:02.688Z,52.31
2019-03-06T10:55:34.400Z,50.19
2019-03-06T10:58:06.553Z,49.79
2019-03-06T11:00:40.441Z,50.87
2019-03-06T11:03:12.560Z,50.51
2019-03-06T11:05:44.628Z,50.83
2019-03-06T11:08:17.353Z,53.16
2019-03-06T11:10:49.232Z,50.18
2019-03-06T11:13:21.045Z,51.57
2019-03-06T11:15:55.973Z,51.12
2019-03-06T11:18:26.247Z,49.61
2019-03-06T11:20:57.986Z,49.94
2019-03-06T11:23:30.518Z,51.55
2019-03-06T11:26:06.367Z,50.03
2019-03-06T11:28:38.857Z,51.18
2019-03-06T11:31:11.738Z,50.82
2019-03-06T11:33:43.905Z,50.46
2019-03-06T11:36:15.939Z,49.40
2019-03-06T11:38:47.677Z,49.21
2019-03-06T11:41:20.549Z,50.49
2019-03-06T11:43:52.121Z,51.39
2019-03-06T11:46:23.933Z,52.53
2019-03-06T11:48:55.767Z,52.06
2019-03-06T11:51:27.404Z,51.34
2019-03-06T11:53:59.046Z,50.57
2019-03-06T11:56:32.665Z,49.63
2019-03-06T11:59:04.479Z,46.22
2019-03-06T12:01:36.086Z,47.48
2019-03-06T12:04:07.675Z,47.18
2019-03-06T12:06:39.559Z,45.32
2019-03-06T12:09:28.664Z,46.10
2019-03-06T12:12:01.027Z,45.87
2019-03-06T12:14:33.055Z,45.83
2019-03-06T12:17:04.814Z,44.47
2019-03-06T12:19:36.646Z,45.85
2019-03-06T12:22:08.301Z,45.42
2019-03-06T12:24:40.014Z,45.63
2019-03-06T12:27:11.766Z,45.83
2019-03-06T12:29:43.451Z,44.59
2019-03-06T12:32:15.416Z,47.61
2019-03-06T12:34:47.676Z,50.15
2019-03-06T12:37:19.635Z,48.45
2019-03-06T12:39:51.386Z,48.94
2019-03-06T12:42:23.098Z,46.99
2019-03-06T12:44:55.828Z,44.73
2019-03-06T12:47:27.410Z,45.77
2019-03-06T12:50:05.431Z,45.80
2019-03-06T12:52:33.504Z,44.09
2019-03-06T12:55:06.079Z,43.48
2019-03-06T12:57:37.657Z,46.54
2019-03-06T13:00:18.335Z,45.47
2019-03-06T13:02:50.345Z,44.74
2019-03-06T13:05:23.445Z,43.03
2019-03-06T13:07:55.311Z,43.44
2019-03-06T13:10:27.113Z,40.95
2019-03-06T13:12:58.604Z,40.95
2019-03-06T13:15:30.133Z,41.46
2019-03-06T13:18:01.830Z,42.75
2019-03-06T13:20:33.361Z,41.62
2019-03-06T13:23:06.633Z,42.35
2019-03-06T13:25:38.360Z,41.31
2019-03-06T13:28:12.033Z,43.56
2019-03-06T13:30:43.839Z,42.92
2019-03-06T13:33:23.058Z,42.78
2019-03-06T13:35:54.597Z,38.50
2019-03-06T13:38:26.368Z,39.94
2019-03-06T13:40:57.802Z,39.82
2019-03-06T13:43:29.274Z,40.26
2019-03-06T13:46:01.000Z,40.45
2019-03-06T13:48:33.043Z,40.09
2019-03-06T13:51:06.141Z,38.13
2019-03-06T13:53:37.849Z,38.08
2019-03-06T13:56:10.148Z,38.69
2019-03-06T13:58:42.111Z,41.00
2019-03-06T14:01:14.805Z,43.11
2019-03-06T14:03:46.889Z,45.21
2019-03-06T14:06:18.845Z,46.21
2019-03-06T14:08:50.343Z,47.79
2019-03-06T14:11:21.931Z,46.06
2019-03-06T14:13:53.633Z,45.69
2019-03-06T14:16:25.659Z,44.37
2019-03-06T14:18:57.291Z,45.00
2019-03-06T14:21:28.960Z,46.63
2019-03-06T14:24:00.550Z,48.69
2019-03-06T14:26:32.459Z,49.43
2019-03-06T14:29:04.293Z,49.71
2019-03-06T14:31:35.940Z,49.58
2019-03-06T14:34:07.481Z,49.35
2019-03-06T14:36:39.158Z,48.61
2019-03-06T14:39:28.701Z,48.42
2019-03-06T14:42:00.763Z,48.12
2019-03-06T14:44:33.701Z,48.87
2019-03-06T14:47:06.131Z,49.08
2019-03-06T14:49:37.880Z,48.17
2019-03-06T14:52:09.466Z,48.61
2019-03-06T14:54:42.785Z,48.43
2019-03-06T14:57:14.681Z,47.98
2019-03-06T14:59:46.294Z,47.78
2019-03-06T15:02:17.815Z,49.09
2019-03-06T15:04:49.539Z,49.24
2019-03-06T15:07:21.047Z,50.02
2019-03-06T15:09:54.903Z,50.29
2019-03-06T15:12:27.688Z,50.54
2019-03-06T15:14:59.385Z,50.47
2019-03-06T15:17:31.174Z,50.66
2019-03-06T15:20:02.865Z,50.45
2019-03-06T15:22:38.659Z,50.80
2019-03-06T15:25:11.549Z,50.69
2019-03-06T15:27:43.256Z,50.71
2019-03-06T15:30:16.235Z,51.29
2019-03-06T15:32:48.035Z,51.14
2019-03-06T15:35:19.808Z,51.11
2019-03-06T15:37:51.460Z,51.15
2019-03-06T15:40:25.081Z,51.59
2019-03-06T15:42:57.154Z,51.98
2019-03-06T15:45:32.816Z,51.40
2019-03-06T15:48:04.821Z,51.81
2019-03-06T15:50:36.977Z,51.43
2019-03-06T15:53:09.295Z,51.57
2019-03-06T15:55:42.695Z,51.83
2019-03-06T15:58:14.639Z,52.34
2019-03-06T16:00:46.832Z,52.04
2019-03-06T16:03:18.468Z,52.71
2019-03-06T16:05:50.157Z,52.83
2019-03-06T16:08:22.230Z,53.19
2019-03-06T16:10:54.678Z,53.25
2019-03-06T16:13:26.715Z,53.39
2019-03-06T16:15:58.352Z,54.21
2019-03-06T16:18:30.009Z,54.23
2019-03-06T16:21:01.891Z,54.06
2019-03-06T16:23:34.337Z,54.11
2019-03-06T16:26:06.556Z,54.08
2019-03-06T16:28:38.029Z,54.66
2019-03-06T16:31:10.776Z,54.74
2019-03-06T16:33:42.903Z,55.18
2019-03-06T16:36:14.660Z,55.58
2019-03-06T16:38:46.601Z,55.54
2019-03-06T16:41:18.386Z,55.72
2019-03-06T16:43:49.990Z,56.03
2019-03-06T16:46:22.037Z,55.97
2019-03-06T16:48:53.868Z,56.24
2019-03-06T16:51:25.704Z,56.28
2019-03-06T16:53:57.607Z,56.30
2019-03-06T16:56:29.424Z,56.25
2019-03-06T16:59:01.155Z,56.77
2019-03-06T17:01:32.884Z,56.77
2019-03-06T17:04:05.785Z,56.83
2019-03-06T17:06:37.373Z,57.16
2019-03-06T17:09:09.329Z,57.05
2019-03-06T17:11:41.319Z,56.67
2019-03-06T17:14:12.924Z,56.81
2019-03-06T17:16:45.061Z,57.41
2019-03-06T17:19:16.579Z,57.73
2019-03-06T17:21:49.865Z,57.83
2019-03-06T17:24:22.841Z,57.58
2019-03-06T17:26:54.755Z,57.59
2019-03-06T17:29:26.351Z,57.95
2019-03-06T17:31:57.729Z,58.02
2019-03-06T17:34:29.499Z,58.58
2019-03-06T17:37:01.408Z,58.38
2019-03-06T17:39:33.570Z,58.31
2019-03-06T17:42:05.357Z,58.63
2019-03-06T17:44:36.024Z,58.60
2019-03-06T17:47:08.267Z,58.91
2019-03-06T17:49:40.028Z,58.87
2019-03-06T17:52:11.844Z,59.08
2019-03-06T17:54:43.470Z,58.79
2019-03-06T17:57:15.293Z,59.33
2019-03-06T17:59:46.988Z,59.54
2019-03-06T18:02:18.870Z,59.55
2019-03-06T18:04:52.276Z,59.74
2019-03-06T18:07:23.951Z,60.37
2019-03-06T18:09:55.842Z,59.95
2019-03-06T18:12:27.486Z,60.11
2019-03-06T18:14:59.153Z,60.27
2019-03-06T18:17:31.050Z,60.41
2019-03-06T18:20:02.800Z,60.54
2019-03-06T18:22:34.651Z,61.03
2019-03-06T18:25:07.954Z,60.72
2019-03-06T18:27:39.431Z,60.65
2019-03-06T18:30:13.586Z,60.88
2019-03-06T18:32:45.493Z,61.12
2019-03-06T18:35:17.465Z,61.07
2019-03-06T18:37:49.136Z,61.31
2019-03-06T18:40:21.111Z,60.68
2019-03-06T18:42:54.772Z,61.01
2019-03-06T18:45:26.605Z,61.05
2019-03-06T18:47:58.362Z,60.83
2019-03-06T18:50:30.004Z,60.84
2019-03-06T18:53:01.776Z,60.85
2019-03-06T18:55:33.669Z,60.83
2019-03-06T18:58:05.174Z,60.66
2019-03-06T19:00:37.354Z,60.88
2019-03-06T19:03:10.305Z,60.62
2019-03-06T19:05:42.043Z,60.69
2019-03-06T19:08:13.725Z,60.98
2019-03-06T19:10:45.738Z,61.22
2019-03-06T19:13:17.876Z,60.97
2019-03-06T19:15:49.638Z,60.91
2019-03-06T19:18:22.370Z,61.19
2019-03-06T19:20:54.090Z,61.44
2019-03-06T19:23:25.758Z,61.80
2019-03-06T19:25:58.077Z,61.43
2019-03-06T19:28:29.929Z,61.50
2019-03-06T19:31:01.792Z,61.44
2019-03-06T19:33:33.721Z,61.48
2019-03-06T19:36:06.058Z,61.77
2019-03-06T19:38:37.905Z,61.71
2019-03-06T19:41:09.641Z,61.41
2019-03-06T19:43:40.959Z,61.55
2019-03-06T19:46:14.238Z,61.03
2019-03-06T19:48:45.870Z,61.05
2019-03-06T19:51:17.505Z,60.91
2019-03-06T19:53:49.268Z,60.79
2019-03-06T19:56:20.912Z,60.55
2019-03-06T19:58:52.765Z,60.96
2019-03-06T20:01:24.685Z,60.33
2019-03-06T20:03:56.410Z,60.62
2019-03-06T20:06:28.286Z,60.45
2019-03-06T20:09:00.380Z,60.88
2019-03-06T20:11:33.657Z,60.10
2019-03-06T20:14:05.295Z,60.35
2019-03-06T20:16:37.111Z,60.47
2019-03-06T20:19:08.967Z,60.06
2019-03-06T20:21:41.122Z,60.23
2019-03-06T20:24:13.248Z,60.36
2019-03-06T20:26:45.140Z,60.04
2019-03-06T20:29:17.091Z,60.17
2019-03-06T20:31:48.811Z,60.05
2019-03-06T20:34:20.982Z,60.21
2019-03-06T20:36:53.357Z,60.21
2019-03-06T20:39:25.093Z,60.15
2019-03-06T20:41:56.915Z,60.05
2019-03-06T20:44:28.473Z,60.24
2019-03-06T20:47:01.178Z,60.53
2019-03-06T20:49:33.295Z,60.29
2019-03-06T20:52:04.985Z,60.06
2019-03-06T20:54:36.865Z,60.11
2019-03-06T20:57:08.796Z,59.90
2019-03-06T20:59:44.092Z,60.45
2019-03-06T21:02:16.013Z,60.39
2019-03-06T21:04:47.623Z,59.97
2019-03-06T21:07:19.348Z,59.98
2019-03-06T21:09:51.493Z,60.31
2019-03-06T21:12:23.066Z,60.30
2019-03-06T21:14:54.920Z,60.71
2019-03-06T21:17:26.655Z,60.36
2019-03-06T21:19:58.435Z,60.24
2019-03-06T21:22:31.680Z,60.08
2019-03-06T21:25:03.414Z,60.02
2019-03-06T21:27:35.389Z,60.20
2019-03-06T21:30:09.371Z,59.98
2019-03-06T21:32:42.295Z,60.02
2019-03-06T21:35:14.924Z,60.09
2019-03-06T21:37:46.797Z,60.08
2019-03-06T21:40:19.003Z,60.05
2019-03-06T21:42:51.417Z,60.00
2019-03-06T21:45:23.163Z,59.93
2019-03-06T21:47:54.784Z,60.12
2019-03-06T21:50:26.214Z,59.68
2019-03-06T21:52:59.440Z,59.83
2019-03-06T21:55:31.389Z,59.87
2019-03-06T21:58:03.206Z,59.86
2019-03-06T22:00:35.175Z,60.14
2019-03-06T22:03:07.018Z,60.07
2019-03-06T22:05:38.784Z,60.04
2019-03-06T22:08:11.310Z,59.84
2019-03-06T22:10:43.302Z,60.02
2019-03-06T22:13:14.705Z,60.12
2019-03-06T22:15:46.584Z,59.66
2019-03-06T22:18:19.027Z,59.67
2019-03-06T22:20:50.652Z,59.34
2019-03-06T22:23:22.297Z,59.49
2019-03-06T22:25:54.007Z,59.21
2019-03-06T22:28:25.549Z,59.38
2019-03-06T22:30:57.267Z,59.33
2019-03-06T22:33:29.384Z,59.06
2019-03-06T22:36:02.111Z,59.23
2019-03-06T22:38:33.836Z,59.42
2019-03-06T22:41:05.949Z,59.54
2019-03-06T22:43:37.732Z,59.09
2019-03-06T22:46:09.463Z,59.05
2019-03-06T22:48:40.998Z,59.27
2019-03-06T22:51:12.866Z,59.05
2019-03-06T22:53:44.619Z,59.28
2019-03-06T22:56:16.304Z,59.08
2019-03-06T22:58:48.159Z,59.33
2019-03-06T23:01:34.153Z,58.70
2019-03-06T23:04:06.636Z,59.07
2019-03-06T23:06:38.395Z,58.89
2019-03-06T23:09:12.075Z,58.77
2019-03-06T23:11:44.251Z,59.21
2019-03-06T23:14:17.140Z,58.64
2019-03-06T23:16:48.830Z,58.42
2019-03-06T23:19:20.517Z,58.57
2019-03-06T23:21:53.806Z,58.22
2019-03-06T23:24:25.219Z,57.99
2019-03-06T23:26:57.490Z,58.59
2019-03-06T23:29:29.189Z,58.14
2019-03-06T23:32:00.950Z,58.11
2019-03-06T23:34:32.502Z,58.47
2019-03-06T23:37:05.637Z,58.71
2019-03-06T23:39:37.267Z,58.63
2019-03-06T23:42:07.896Z,58.79
2019-03-06T23:44:38.285Z,58.77
2019-03-06T23:47:08.894Z,58.90
2019-03-06T23:49:39.109Z,58.96
2019-03-06T23:52:11.105Z,58.83
2019-03-06T23:54:41.515Z,58.71
2019-03-06T23:57:11.706Z,59.38
2019-03-06T23:59:42.932Z,59.38
